Time;durP1;ratioP1;P1;durP2;ratioP2;P2;SDS_P1;SDS_P2;PMS_P1;PMS_P2;Temp;Humidity;BMP_temperature;BMP_pressure;BME280_temperature;BME280_humidity;BME280_pressure;Samples;Min_cycle;Max_cycle;Signal;HPM_P1;HPM_P2
2023/12/16 00:02:27;;;;;;;17.35;6.55;;;7.20;99.90;;;;;;7359210;32;20245;-54
2023/12/16 00:06:30;;;;;;;14.50;5.37;;;7.20;99.90;;;;;;7350588;32;20894;-55
2023/12/16 00:10:32;;;;;;;14.00;5.15;;;7.20;99.90;;;;;;7351781;32;20107;-55
2023/12/16 00:14:36;;;;;;;15.18;5.32;;;7.20;99.90;;;;;;7349549;32;20302;-55
2023/12/16 00:18:38;;;;;;;14.45;5.25;;;7.20;99.90;;;;;;7352019;32;20215;-54
2023/12/16 00:22:40;;;;;;;18.87;5.85;;;7.20;99.90;;;;;;7351712;32;20113;-56
2023/12/16 00:26:42;;;;;;;11.73;5.37;;;7.20;99.90;;;;;;7350048;32;20095;-55
2023/12/16 00:30:44;;;;;;;16.08;5.35;;;7.30;99.90;;;;;;7350701;32;20092;-55
2023/12/16 00:34:46;;;;;;;16.10;5.10;;;7.30;99.90;;;;;;7351341;32;20178;-55
2023/12/16 00:38:48;;;;;;;13.55;5.43;;;7.30;99.90;;;;;;7355052;32;20111;-55
2023/12/16 00:42:49;;;;;;;16.30;6.68;;;7.30;99.90;;;;;;7341738;32;20185;-54
2023/12/16 00:46:51;;;;;;;15.13;6.62;;;7.20;99.90;;;;;;7345326;32;20119;-56
2023/12/16 00:50:54;;;;;;;11.95;5.68;;;7.10;99.90;;;;;;7350517;32;20570;-56
2023/12/16 00:54:56;;;;;;;20.83;6.35;;;7.20;99.90;;;;;;7352254;32;20421;-55
2023/12/16 00:58:58;;;;;;;15.80;6.12;;;7.20;99.90;;;;;;7352110;32;20088;-55
2023/12/16 01:03:00;;;;;;;13.48;6.85;;;7.30;99.90;;;;;;7349161;32;20221;-55
2023/12/16 01:07:02;;;;;;;16.33;5.90;;;7.30;99.90;;;;;;7346017;32;20103;-56
2023/12/16 01:11:04;;;;;;;16.10;5.70;;;7.30;99.90;;;;;;7350351;32;20111;-56
2023/12/16 01:15:06;;;;;;;13.80;5.50;;;7.30;99.90;;;;;;7346718;32;20589;-55
2023/12/16 01:19:08;;;;;;;17.00;5.78;;;7.20;99.90;;;;;;7348478;32;20507;-55
2023/12/16 01:23:10;;;;;;;18.30;5.45;;;7.20;99.90;;;;;;7348849;32;20198;-55
2023/12/16 01:27:12;;;;;;;13.95;5.25;;;7.20;99.90;;;;;;7349841;32;20156;-56
2023/12/16 01:31:14;;;;;;;14.93;4.37;;;7.10;99.90;;;;;;7347991;32;20707;-57
2023/12/16 01:35:15;;;;;;;14.87;4.45;;;7.30;99.90;;;;;;7349858;32;20229;-55
2023/12/16 01:39:17;;;;;;;20.80;4.65;;;7.20;99.90;;;;;;7340698;32;20172;-55
2023/12/16 01:43:19;;;;;;;22.25;4.20;;;7.30;99.90;;;;;;7345374;32;20605;-56
2023/12/16 01:47:21;;;;;;;12.82;3.85;;;7.30;99.90;;;;;;7350616;32;20119;-56
2023/12/16 01:51:23;;;;;;;13.65;3.78;;;7.20;99.90;;;;;;7358033;32;21727;-55
2023/12/16 01:55:25;;;;;;;14.57;3.90;;;7.20;99.90;;;;;;7354382;32;20111;-55
2023/12/16 01:59:27;;;;;;;17.33;3.75;;;7.30;99.90;;;;;;7354633;32;20429;-55
2023/12/16 02:03:30;;;;;;;12.48;3.75;;;7.30;99.90;;;;;;7353907;32;20217;-56
2023/12/16 02:07:33;;;;;;;9.38;3.12;;;7.20;99.90;;;;;;7357509;32;20096;-56
2023/12/16 02:11:35;;;;;;;15.93;3.47;;;7.30;99.90;;;;;;7350825;32;20258;-56
2023/12/16 02:15:37;;;;;;;14.77;3.47;;;7.30;99.90;;;;;;7346835;32;20163;-55
2023/12/16 02:19:40;;;;;;;15.95;3.20;;;7.30;99.90;;;;;;7354492;32;20107;-55
2023/12/16 02:23:42;;;;;;;11.40;3.22;;;7.40;99.90;;;;;;7347993;32;20280;-55
2023/12/16 02:27:47;;;;;;;11.82;3.20;;;7.30;99.90;;;;;;7349347;32;20747;-57
2023/12/16 02:31:49;;;;;;;12.70;3.05;;;7.30;99.90;;;;;;7346354;32;20425;-56
2023/12/16 02:35:51;;;;;;;10.13;2.80;;;7.40;99.90;;;;;;7350617;32;20203;-56
2023/12/16 02:39:52;;;;;;;11.52;3.22;;;7.30;99.90;;;;;;7354695;32;20141;-56
2023/12/16 02:43:54;;;;;;;9.88;3.65;;;7.30;99.90;;;;;;7353409;32;20256;-57
2023/12/16 02:47:56;;;;;;;11.50;2.92;;;7.30;99.90;;;;;;7350823;32;20107;-53
2023/12/16 02:51:58;;;;;;;10.77;3.10;;;7.30;99.90;;;;;;7350603;32;20147;-54
2023/12/16 02:56:00;;;;;;;14.40;2.97;;;7.40;99.90;;;;;;7354208;32;20186;-54
2023/12/16 03:00:03;;;;;;;14.07;2.90;;;7.30;99.90;;;;;;7345470;32;20619;-56
2023/12/16 03:04:05;;;;;;;11.93;3.28;;;7.40;99.90;;;;;;7347115;32;20095;-55
2023/12/16 03:08:07;;;;;;;15.63;2.30;;;7.30;99.90;;;;;;7352576;32;20099;-55
2023/12/16 03:12:09;;;;;;;12.10;2.97;;;7.30;99.90;;;;;;7353615;32;20119;-56
2023/12/16 03:16:11;;;;;;;13.32;3.22;;;7.30;99.90;;;;;;7352492;32;20122;-55
2023/12/16 03:20:13;;;;;;;13.05;2.80;;;7.40;99.90;;;;;;7360487;32;20224;-55
2023/12/16 03:24:15;;;;;;;14.30;3.08;;;7.30;99.90;;;;;;7354261;32;20203;-55
2023/12/16 03:28:17;;;;;;;15.77;3.03;;;7.40;99.90;;;;;;7344081;32;20550;-54
2023/12/16 03:32:19;;;;;;;8.20;2.42;;;7.40;99.90;;;;;;7351463;32;20135;-54
2023/12/16 03:36:21;;;;;;;8.88;2.40;;;7.30;99.90;;;;;;7350498;32;20246;-55
2023/12/16 03:40:23;;;;;;;14.45;3.10;;;7.30;99.90;;;;;;7351753;32;20111;-56
2023/12/16 03:44:25;;;;;;;10.32;2.62;;;7.40;99.90;;;;;;7355009;32;20287;-55
2023/12/16 03:48:27;;;;;;;10.40;2.75;;;7.40;99.90;;;;;;7352987;32;20504;-55
2023/12/16 03:52:29;;;;;;;8.90;2.50;;;7.30;99.90;;;;;;7347127;32;20592;-55
2023/12/16 03:56:30;;;;;;;11.32;2.60;;;7.30;99.90;;;;;;7349011;32;20214;-55
2023/12/16 04:00:32;;;;;;;13.70;2.70;;;7.40;99.90;;;;;;7354148;32;20131;-55
2023/12/16 04:04:35;;;;;;;9.30;2.45;;;7.30;99.90;;;;;;7351681;32;20273;-56
2023/12/16 04:08:37;;;;;;;8.02;2.60;;;7.40;99.90;;;;;;7353249;32;20117;-55
2023/12/16 04:12:39;;;;;;;11.20;2.67;;;7.40;99.90;;;;;;7351740;32;21313;-55
2023/12/16 04:16:41;;;;;;;9.05;3.00;;;7.40;99.90;;;;;;7351928;32;20277;-56
2023/12/16 04:20:42;;;;;;;8.35;2.37;;;7.40;99.90;;;;;;7349452;32;20095;-56
2023/12/16 04:24:45;;;;;;;8.32;2.55;;;7.40;99.90;;;;;;7338192;32;20103;-56
2023/12/16 04:28:47;;;;;;;9.98;3.45;;;7.30;99.90;;;;;;7355221;32;20507;-56
2023/12/16 04:32:49;;;;;;;13.57;2.67;;;7.40;99.90;;;;;;7347739;32;20608;-55
2023/12/16 04:36:51;;;;;;;14.52;3.10;;;7.40;99.90;;;;;;7348655;32;20134;-56
2023/12/16 04:40:53;;;;;;;9.70;2.60;;;7.30;99.90;;;;;;7346801;32;20188;-57
2023/12/16 04:44:54;;;;;;;12.50;2.70;;;7.30;99.90;;;;;;7345809;32;20178;-56
2023/12/16 04:48:56;;;;;;;11.85;2.60;;;7.30;99.90;;;;;;7346179;32;20148;-55
2023/12/16 04:52:58;;;;;;;12.32;3.03;;;7.20;99.90;;;;;;7348542;32;20305;-55
2023/12/16 04:57:00;;;;;;;10.40;2.50;;;7.30;99.90;;;;;;7349225;32;20191;-55
2023/12/16 05:01:03;;;;;;;8.18;2.37;;;7.30;99.90;;;;;;7342309;32;20210;-56
2023/12/16 05:05:05;;;;;;;11.60;3.12;;;7.30;99.90;;;;;;7340375;32;20129;-55
2023/12/16 05:09:10;;;;;;;13.18;2.95;;;7.20;99.90;;;;;;7345594;32;20148;-55
2023/12/16 05:13:12;;;;;;;12.77;3.08;;;7.30;99.90;;;;;;7346603;32;21387;-55
2023/12/16 05:17:14;;;;;;;11.23;2.50;;;7.30;99.90;;;;;;7337242;32;20100;-55
2023/12/16 05:21:15;;;;;;;13.80;3.45;;;7.30;99.90;;;;;;7347402;32;20554;-54
2023/12/16 05:25:17;;;;;;;8.85;2.40;;;7.30;99.90;;;;;;7360953;32;20099;-55
2023/12/16 05:29:19;;;;;;;12.43;3.85;;;7.30;99.90;;;;;;7350138;32;20170;-56
2023/12/16 05:33:21;;;;;;;4.70;2.20;;;7.30;99.90;;;;;;7348393;32;20279;-56
2023/12/16 05:37:23;;;;;;;12.77;2.78;;;7.30;99.90;;;;;;7346881;32;20434;-54
2023/12/16 05:41:25;;;;;;;13.60;3.00;;;7.30;99.90;;;;;;7352783;32;20458;-56
2023/12/16 05:45:27;;;;;;;11.38;2.72;;;7.20;99.90;;;;;;7346894;32;22146;-56
2023/12/16 05:49:29;;;;;;;11.48;2.90;;;7.20;99.90;;;;;;7332952;32;20186;-55
2023/12/16 05:53:33;;;;;;;12.73;3.53;;;7.10;99.90;;;;;;7340191;32;20095;-56
2023/12/16 05:57:34;;;;;;;11.18;3.28;;;7.10;99.90;;;;;;7350841;32;20144;-56
2023/12/16 06:01:37;;;;;;;13.60;2.95;;;7.10;99.90;;;;;;7349697;32;20335;-56
2023/12/16 06:05:39;;;;;;;13.48;3.00;;;7.00;99.90;;;;;;7343621;32;20091;-54
2023/12/16 06:09:41;;;;;;;13.35;3.70;;;7.10;99.90;;;;;;7348609;32;20260;-55
2023/12/16 06:13:42;;;;;;;12.77;2.60;;;7.10;99.90;;;;;;7350046;32;20111;-55
2023/12/16 06:17:44;;;;;;;10.48;2.87;;;7.10;99.90;;;;;;7350803;32;20130;-55
2023/12/16 06:21:46;;;;;;;10.60;2.78;;;7.10;99.90;;;;;;7349745;32;20222;-56
2023/12/16 06:25:48;;;;;;;10.60;2.75;;;7.10;99.90;;;;;;7347471;32;20100;-54
2023/12/16 06:29:50;;;;;;;13.10;2.80;;;7.10;99.90;;;;;;7348252;32;20103;-55
2023/12/16 06:33:52;;;;;;;11.10;2.92;;;7.00;99.90;;;;;;7347260;32;20095;-57
2023/12/16 06:37:54;;;;;;;11.70;2.95;;;7.10;99.90;;;;;;7349748;32;20155;-55
2023/12/16 06:41:55;;;;;;;10.18;2.72;;;7.10;99.90;;;;;;7349882;32;20336;-55
2023/12/16 06:45:57;;;;;;;14.15;4.28;;;7.10;99.90;;;;;;7351521;32;20169;-53
2023/12/16 06:50:02;;;;;;;10.73;2.83;;;7.10;99.90;;;;;;7344889;32;20103;-55
2023/12/16 06:54:04;;;;;;;11.65;2.58;;;7.10;99.90;;;;;;7353413;32;20270;-55
2023/12/16 06:58:05;;;;;;;12.95;3.00;;;7.10;99.90;;;;;;7354532;32;20187;-55
2023/12/16 07:02:07;;;;;;;8.52;2.50;;;7.00;99.90;;;;;;7353931;32;20144;-55
2023/12/16 07:06:10;;;;;;;9.18;2.92;;;7.10;99.90;;;;;;7351942;32;20120;-55
2023/12/16 07:10:12;;;;;;;16.02;3.65;;;7.20;99.90;;;;;;7349341;32;20191;-55
2023/12/16 07:14:14;;;;;;;10.88;2.50;;;7.20;99.90;;;;;;7347666;32;20180;-55
2023/12/16 07:18:16;;;;;;;12.77;2.35;;;7.30;99.90;;;;;;7341513;32;20176;-55
2023/12/16 07:22:18;;;;;;;10.05;2.70;;;7.40;99.90;;;;;;7349167;32;20755;-55
2023/12/16 07:26:20;;;;;;;13.23;2.87;;;7.30;99.90;;;;;;7344311;32;20096;-55
2023/12/16 07:30:22;;;;;;;12.40;2.58;;;7.30;99.90;;;;;;7348511;32;20156;-56
2023/12/16 07:34:24;;;;;;;10.00;2.53;;;7.20;99.90;;;;;;7351625;32;20448;-56
2023/12/16 07:38:25;;;;;;;11.20;2.83;;;7.20;99.90;;;;;;7354088;32;20107;-55
2023/12/16 07:42:27;;;;;;;11.05;2.60;;;7.20;99.90;;;;;;7339600;32;20845;-56
2023/12/16 07:46:29;;;;;;;11.63;2.33;;;7.30;99.90;;;;;;7342488;32;20204;-56
2023/12/16 07:50:31;;;;;;;11.93;3.60;;;7.30;99.90;;;;;;7344059;32;20810;-57
2023/12/16 07:54:33;;;;;;;10.27;2.72;;;7.30;99.90;;;;;;7339381;32;20175;-57
2023/12/16 07:58:35;;;;;;;18.77;3.05;;;7.30;99.90;;;;;;7343855;32;20479;-56
2023/12/16 08:02:37;;;;;;;13.20;2.72;;;7.30;99.90;;;;;;7347991;32;20173;-57
2023/12/16 08:06:39;;;;;;;7.93;2.67;;;7.30;99.90;;;;;;7346950;32;20387;-57
2023/12/16 08:10:40;;;;;;;13.75;3.58;;;7.20;99.90;;;;;;7345160;32;20184;-56
2023/12/16 08:14:42;;;;;;;14.75;2.87;;;7.20;99.90;;;;;;7349846;32;20135;-57
2023/12/16 08:18:45;;;;;;;10.68;2.75;;;7.00;99.90;;;;;;7343107;32;20146;-55
2023/12/16 08:22:47;;;;;;;12.40;2.55;;;7.10;99.90;;;;;;7347952;32;20128;-57
2023/12/16 08:26:49;;;;;;;15.60;2.65;;;6.90;99.90;;;;;;7348793;32;20106;-56
2023/12/16 08:30:53;;;;;;;10.45;2.33;;;7.00;99.90;;;;;;7351256;32;20099;-56
2023/12/16 08:34:55;;;;;;;10.93;2.55;;;7.00;99.90;;;;;;7350758;32;20114;-55
2023/12/16 08:38:57;;;;;;;15.70;3.10;;;7.20;99.90;;;;;;7347930;32;20106;-55
2023/12/16 08:42:59;;;;;;;12.32;2.53;;;7.20;99.90;;;;;;7351936;32;20107;-56
2023/12/16 08:47:02;;;;;;;15.35;2.58;;;7.20;99.90;;;;;;7345957;32;20340;-57
2023/12/16 08:51:04;;;;;;;8.95;2.37;;;7.40;99.90;;;;;;7342804;32;20194;-57
2023/12/16 08:55:06;;;;;;;11.90;3.00;;;7.60;99.90;;;;;;7347487;32;20127;-57
2023/12/16 08:59:08;;;;;;;11.35;2.33;;;7.60;99.90;;;;;;7333480;32;20643;-58
2023/12/16 09:03:13;;;;;;;13.02;2.22;;;7.70;99.90;;;;;;7339060;32;20190;-58
2023/12/16 09:07:15;;;;;;;16.87;2.62;;;7.80;99.90;;;;;;7338504;32;20532;-58
2023/12/16 09:11:17;;;;;;;8.95;1.77;;;7.90;99.90;;;;;;7334836;32;20190;-57
2023/12/16 09:15:18;;;;;;;11.75;2.12;;;8.10;99.90;;;;;;7336456;32;20635;-57
2023/12/16 09:19:21;;;;;;;14.55;2.78;;;8.20;99.90;;;;;;7340662;32;20675;-54
2023/12/16 09:23:22;;;;;;;10.57;2.08;;;8.30;99.90;;;;;;7346869;32;20155;-57
2023/12/16 09:27:24;;;;;;;12.30;2.75;;;8.30;99.90;;;;;;7345892;32;20099;-58
2023/12/16 09:31:26;;;;;;;9.02;2.15;;;8.20;99.90;;;;;;7327365;32;20139;-57
2023/12/16 09:35:28;;;;;;;11.75;2.60;;;8.30;99.90;;;;;;7339854;32;20122;-57
2023/12/16 09:39:30;;;;;;;11.68;2.67;;;8.30;99.90;;;;;;7349976;32;20263;-59
2023/12/16 09:43:35;;;;;;;10.45;2.72;;;8.20;99.90;;;;;;7346255;32;21786;-58
2023/12/16 09:47:37;;;;;;;15.13;2.65;;;8.30;99.90;;;;;;7343101;32;20213;-57
2023/12/16 09:51:43;;;;;;;14.05;2.95;;;8.40;99.90;;;;;;7346762;32;20229;-56
2023/12/16 09:55:45;;;;;;;18.80;2.87;;;8.40;99.90;;;;;;7346006;32;20107;-57
2023/12/16 09:59:47;;;;;;;13.35;2.72;;;8.40;99.90;;;;;;7343196;32;20587;-57
2023/12/16 10:03:51;;;;;;;18.17;3.05;;;8.30;99.90;;;;;;7338951;32;20268;-55
2023/12/16 10:08:04;;;;;;;11.50;2.78;;;8.40;99.90;;;;;;7351278;32;20129;-56
2023/12/16 10:12:09;;;;;;;14.38;2.65;;;8.40;99.90;;;;;;7349287;32;20588;-57
2023/12/16 10:16:17;;;;;;;13.98;2.75;;;8.50;99.90;;;;;;7355100;32;20110;-56
2023/12/16 10:20:19;;;;;;;14.50;2.83;;;8.60;99.90;;;;;;7353903;32;20754;-56
2023/12/16 10:24:21;;;;;;;14.80;2.60;;;8.60;99.90;;;;;;7357026;32;20204;-62
2023/12/16 10:28:26;;;;;;;8.85;2.28;;;8.60;99.90;;;;;;7332996;32;21821;-57
2023/12/16 10:32:28;;;;;;;17.48;3.42;;;8.70;99.90;;;;;;7350308;32;20144;-57
2023/12/16 10:36:30;;;;;;;15.00;2.37;;;8.70;99.90;;;;;;7351407;32;20186;-57
2023/12/16 10:40:35;;;;;;;10.85;2.28;;;8.70;99.90;;;;;;7351313;32;20190;-57
2023/12/16 10:44:36;;;;;;;8.93;2.30;;;8.70;99.90;;;;;;7346235;32;20155;-56
2023/12/16 10:48:39;;;;;;;11.52;2.35;;;8.80;99.90;;;;;;7350727;32;20103;-56
2023/12/16 10:52:56;;;;;;;11.75;2.28;;;8.80;99.90;;;;;;7348494;32;20624;-58
2023/12/16 10:57:29;;;;;;;15.20;2.40;;;9.00;99.90;;;;;;7348995;32;20648;-57
2023/12/16 11:01:34;;;;;;;10.98;2.40;;;9.00;99.90;;;;;;7352797;32;20104;-56
2023/12/16 11:05:52;;;;;;;17.35;2.72;;;9.00;99.90;;;;;;7354080;32;20528;-56
2023/12/16 11:09:55;;;;;;;11.35;2.42;;;9.10;99.90;;;;;;7346643;32;20131;-57
2023/12/16 11:13:58;;;;;;;14.20;2.33;;;9.00;99.90;;;;;;7354358;32;20104;-56
2023/12/16 11:18:14;;;;;;;14.40;2.90;;;9.00;99.90;;;;;;7351863;32;20095;-56
2023/12/16 11:22:21;;;;;;;10.90;1.80;;;9.00;99.90;;;;;;7345183;32;20139;-56
2023/12/16 11:26:25;;;;;;;10.25;2.08;;;9.10;99.90;;;;;;7344247;32;20095;-56
2023/12/16 11:30:35;;;;;;;14.70;2.45;;;9.10;99.90;;;;;;7345686;32;20530;-56
2023/12/16 11:34:49;;;;;;;12.45;2.05;;;9.10;99.90;;;;;;7347787;32;20237;-56
2023/12/16 11:38:51;;;;;;;12.18;2.28;;;9.00;99.90;;;;;;7350097;32;20161;-58
2023/12/16 11:42:54;;;;;;;15.05;2.42;;;8.90;99.90;;;;;;7351782;32;20114;-57
2023/12/16 11:46:58;;;;;;;17.25;3.30;;;9.00;99.90;;;;;;7349982;32;20126;-56
2023/12/16 11:51:00;;;;;;;13.98;3.10;;;9.00;99.90;;;;;;7344562;32;20205;-57
2023/12/16 11:55:05;;;;;;;17.75;2.65;;;9.00;99.90;;;;;;7347084;32;20250;-57
2023/12/16 11:59:08;;;;;;;15.00;2.60;;;9.10;99.90;;;;;;7347500;32;20116;-55
2023/12/16 12:03:11;;;;;;;16.77;2.65;;;9.20;99.90;;;;;;7347817;32;20107;-56
2023/12/16 12:07:14;;;;;;;15.80;2.45;;;9.20;99.90;;;;;;7344796;32;20254;-58
2023/12/16 12:11:17;;;;;;;11.75;2.60;;;9.30;99.90;;;;;;7343797;32;20107;-57
2023/12/16 12:15:19;;;;;;;10.25;1.95;;;9.30;99.90;;;;;;7337347;32;20207;-56
2023/12/16 12:19:21;;;;;;;11.12;2.45;;;9.40;99.90;;;;;;7348465;32;20167;-58
2023/12/16 12:23:23;;;;;;;11.52;2.62;;;9.40;99.90;;;;;;7350865;32;20645;-57
2023/12/16 12:27:28;;;;;;;11.25;2.72;;;9.40;99.90;;;;;;7348715;32;20107;-58
2023/12/16 12:31:30;;;;;;;11.23;2.53;;;9.50;99.90;;;;;;7346810;32;20083;-56
2023/12/16 12:35:32;;;;;;;12.18;2.42;;;9.50;99.90;;;;;;7346008;32;20514;-57
2023/12/16 12:39:34;;;;;;;14.77;2.45;;;9.50;99.90;;;;;;7351189;32;20135;-58
2023/12/16 12:43:36;;;;;;;16.35;2.85;;;9.50;99.90;;;;;;7349231;32;20149;-58
2023/12/16 12:47:38;;;;;;;16.25;2.62;;;9.50;99.90;;;;;;7346473;32;20159;-57
2023/12/16 12:51:49;;;;;;;14.07;2.30;;;9.50;99.90;;;;;;7345864;32;20100;-58
2023/12/16 12:55:51;;;;;;;11.90;2.60;;;9.60;99.90;;;;;;7348570;32;20186;-58
2023/12/16 12:59:53;;;;;;;9.90;1.85;;;9.60;99.90;;;;;;7350966;32;20201;-58
2023/12/16 13:04:04;;;;;;;12.35;2.17;;;9.60;99.90;;;;;;7349144;32;20195;-57
2023/12/16 13:08:08;;;;;;;12.68;2.58;;;9.60;99.90;;;;;;7343495;32;20349;-57
2023/12/16 13:12:10;;;;;;;18.00;3.40;;;9.60;99.90;;;;;;7341793;32;20129;-55
2023/12/16 13:16:13;;;;;;;11.18;2.50;;;9.60;99.90;;;;;;7343721;32;20211;-58
2023/12/16 13:20:16;;;;;;;20.42;3.58;;;9.60;99.90;;;;;;7345680;32;20204;-57
2023/12/16 13:24:18;;;;;;;13.90;2.37;;;9.60;99.90;;;;;;7348553;32;20194;-56
2023/12/16 13:28:20;;;;;;;13.55;2.95;;;9.50;99.90;;;;;;7352027;32;20216;-55
2023/12/16 13:32:21;;;;;;;19.12;3.22;;;9.50;99.90;;;;;;7347193;32;20174;-57
2023/12/16 13:36:26;;;;;;;14.45;2.85;;;9.40;99.90;;;;;;7343802;32;20310;-55
2023/12/16 13:40:48;;;;;;;16.75;2.67;;;9.40;99.90;;;;;;7346944;32;20688;-57
2023/12/16 13:44:53;;;;;;;13.25;2.80;;;9.40;99.90;;;;;;7342945;32;20213;-56
2023/12/16 13:48:56;;;;;;;15.00;3.12;;;9.40;99.90;;;;;;7348603;32;20099;-61
2023/12/16 13:52:58;;;;;;;14.07;3.20;;;9.40;99.90;;;;;;7350821;32;20125;-61
2023/12/16 13:57:01;;;;;;;12.90;2.72;;;9.50;99.90;;;;;;7352018;32;20122;-56
2023/12/16 14:01:03;;;;;;;13.20;3.72;;;9.50;99.90;;;;;;7352205;32;20206;-57
2023/12/16 14:05:05;;;;;;;15.93;2.95;;;9.40;99.90;;;;;;7352590;32;20103;-56
2023/12/16 14:09:07;;;;;;;11.80;3.37;;;9.30;99.90;;;;;;7345216;32;20115;-54
2023/12/16 14:13:09;;;;;;;13.57;2.92;;;9.30;99.90;;;;;;7350682;32;20112;-55
2023/12/16 14:17:11;;;;;;;13.65;3.42;;;9.20;99.90;;;;;;7348611;32;20619;-56
2023/12/16 14:21:14;;;;;;;13.82;3.20;;;9.20;99.90;;;;;;7350042;32;20250;-57
2023/12/16 14:25:16;;;;;;;13.18;2.97;;;9.20;99.90;;;;;;7347883;32;20246;-54
2023/12/16 14:29:18;;;;;;;16.58;3.55;;;9.20;99.90;;;;;;7350616;32;20099;-56
2023/12/16 14:33:20;;;;;;;16.30;2.75;;;9.10;99.90;;;;;;7349139;32;20142;-58
2023/12/16 14:37:22;;;;;;;14.95;3.00;;;9.20;99.90;;;;;;7338987;32;20185;-58
2023/12/16 14:41:24;;;;;;;11.63;2.55;;;9.10;99.90;;;;;;7354836;32;20669;-57
2023/12/16 14:45:25;;;;;;;11.05;2.83;;;9.10;99.90;;;;;;7355462;32;20530;-56
2023/12/16 14:49:27;;;;;;;14.25;3.17;;;9.10;99.90;;;;;;7348248;32;20126;-56
2023/12/16 14:53:29;;;;;;;12.43;2.47;;;9.20;99.90;;;;;;7343038;32;20513;-55
2023/12/16 14:57:32;;;;;;;17.90;3.78;;;9.10;99.90;;;;;;7356394;32;22450;-55
2023/12/16 15:01:33;;;;;;;10.07;3.20;;;9.00;99.90;;;;;;7352275;32;20125;-57
2023/12/16 15:05:35;;;;;;;14.87;3.35;;;9.00;99.90;;;;;;7354266;32;20102;-56
2023/12/16 15:09:37;;;;;;;14.18;3.22;;;9.00;99.90;;;;;;7359654;32;20095;-56
2023/12/16 15:13:39;;;;;;;14.05;3.20;;;9.00;99.90;;;;;;7354396;32;20141;-56
2023/12/16 15:17:41;;;;;;;17.48;3.03;;;9.00;99.90;;;;;;7351362;32;20194;-56
2023/12/16 15:21:43;;;;;;;14.87;3.80;;;9.00;99.90;;;;;;7357207;32;20091;-56
2023/12/16 15:25:45;;;;;;;12.25;2.80;;;9.00;99.90;;;;;;7355093;32;20221;-56
2023/12/16 15:29:47;;;;;;;16.75;3.20;;;9.00;99.90;;;;;;7346707;32;20565;-56
2023/12/16 15:33:48;;;;;;;21.23;3.65;;;9.00;99.90;;;;;;7351953;32;20248;-56
2023/12/16 15:37:51;;;;;;;18.20;3.90;;;9.00;99.90;;;;;;7354590;32;20227;-60
2023/12/16 15:41:52;;;;;;;10.57;3.60;;;9.00;99.90;;;;;;7347615;32;20119;-56
2023/12/16 15:45:54;;;;;;;14.63;3.15;;;9.00;99.90;;;;;;7347304;32;20198;-56
2023/12/16 15:49:56;;;;;;;12.27;3.05;;;8.90;99.90;;;;;;7348927;32;20108;-55
2023/12/16 15:53:58;;;;;;;15.57;3.62;;;8.90;99.90;;;;;;7354261;32;20133;-56
2023/12/16 15:58:00;;;;;;;13.50;3.78;;;8.90;99.90;;;;;;7346495;32;20109;-57
2023/12/16 16:02:01;;;;;;;13.43;3.22;;;8.90;99.90;;;;;;7335728;32;20359;-56
2023/12/16 16:06:03;;;;;;;12.90;3.22;;;8.90;99.90;;;;;;7341460;32;20133;-56
2023/12/16 16:10:06;;;;;;;12.57;3.50;;;8.80;99.90;;;;;;7344128;32;20099;-56
2023/12/16 16:14:08;;;;;;;14.98;3.80;;;8.80;99.90;;;;;;7346854;32;20144;-55
2023/12/16 16:18:10;;;;;;;22.30;4.65;;;8.80;99.90;;;;;;7341586;32;20213;-56
2023/12/16 16:22:13;;;;;;;15.05;3.95;;;8.70;99.90;;;;;;7348532;32;20124;-57
2023/12/16 16:26:16;;;;;;;18.85;3.80;;;8.80;99.90;;;;;;7337538;32;20111;-56
2023/12/16 16:30:17;;;;;;;17.00;4.00;;;8.70;99.90;;;;;;7343925;32;20683;-57
2023/12/16 16:34:19;;;;;;;15.18;4.22;;;8.70;99.90;;;;;;7341704;32;20510;-54
2023/12/16 16:38:21;;;;;;;18.70;4.50;;;8.70;99.90;;;;;;7343059;32;20150;-56
2023/12/16 16:42:23;;;;;;;14.52;4.25;;;8.70;99.90;;;;;;7342850;32;20243;-56
2023/12/16 16:46:25;;;;;;;15.68;4.78;;;8.70;99.90;;;;;;7330781;32;20497;-55
2023/12/16 16:50:28;;;;;;;15.75;4.28;;;8.70;99.90;;;;;;7340409;32;20100;-56
2023/12/16 16:54:30;;;;;;;16.85;4.37;;;8.60;99.90;;;;;;7337030;32;20209;-56
2023/12/16 16:58:32;;;;;;;13.98;4.60;;;8.60;99.90;;;;;;7340983;32;20110;-56
2023/12/16 17:02:37;;;;;;;16.23;4.87;;;8.60;99.90;;;;;;7342084;32;20353;-56
2023/12/16 17:06:39;;;;;;;13.20;5.07;;;8.60;99.90;;;;;;7344553;32;20167;-56
2023/12/16 17:10:41;;;;;;;15.43;5.10;;;8.50;99.90;;;;;;7340097;32;20271;-57
2023/12/16 17:14:43;;;;;;;18.45;5.35;;;8.50;99.90;;;;;;7340737;32;20474;-56
2023/12/16 17:18:45;;;;;;;12.95;5.68;;;8.50;99.90;;;;;;7340421;32;20269;-57
2023/12/16 17:22:46;;;;;;;18.15;6.32;;;8.50;99.90;;;;;;7341023;32;20206;-57
2023/12/16 17:26:49;;;;;;;18.70;6.53;;;8.50;99.90;;;;;;7334512;32;20675;-57
2023/12/16 17:30:50;;;;;;;18.00;6.82;;;8.40;99.90;;;;;;7332698;32;20095;-57
2023/12/16 17:34:53;;;;;;;23.20;6.75;;;8.40;99.90;;;;;;7348710;32;20095;-57
2023/12/16 17:38:54;;;;;;;16.55;6.87;;;8.40;99.90;;;;;;7348087;32;20096;-56
2023/12/16 17:42:57;;;;;;;19.05;7.43;;;8.40;99.90;;;;;;7347676;32;20212;-56
2023/12/16 17:46:59;;;;;;;17.60;8.00;;;8.40;99.90;;;;;;7341776;32;20193;-56
2023/12/16 17:51:01;;;;;;;14.82;6.65;;;8.40;99.90;;;;;;7342779;32;21734;-57
2023/12/16 17:55:03;;;;;;;13.88;6.60;;;8.40;99.90;;;;;;7346557;32;20228;-56
2023/12/16 17:59:05;;;;;;;14.10;7.35;;;8.40;99.90;;;;;;7344041;32;20303;-56
2023/12/16 18:03:06;;;;;;;13.52;7.32;;;8.40;99.90;;;;;;7348897;32;20190;-55
2023/12/16 18:07:08;;;;;;;12.43;7.37;;;8.40;99.90;;;;;;7348657;32;20214;-56
2023/12/16 18:11:10;;;;;;;17.00;7.72;;;8.40;99.90;;;;;;7347898;32;20107;-56
2023/12/16 18:15:12;;;;;;;14.18;7.35;;;8.40;99.90;;;;;;7343761;32;20115;-56
2023/12/16 18:19:14;;;;;;;21.37;8.00;;;8.40;99.90;;;;;;7347503;32;20149;-55
2023/12/16 18:23:16;;;;;;;14.70;7.10;;;8.30;99.90;;;;;;7341813;32;21653;-56
2023/12/16 18:27:18;;;;;;;23.00;7.95;;;8.30;99.90;;;;;;7347382;32;20107;-56
2023/12/16 18:31:20;;;;;;;19.80;8.10;;;8.40;99.90;;;;;;7351995;32;20579;-56
2023/12/16 18:35:21;;;;;;;14.23;8.23;;;8.40;99.90;;;;;;7348509;32;20190;-57
2023/12/16 18:39:23;;;;;;;16.00;8.27;;;8.30;99.90;;;;;;7348678;32;20543;-57
2023/12/16 18:43:25;;;;;;;20.42;9.25;;;8.30;99.90;;;;;;7349088;32;20265;-57
2023/12/16 18:47:27;;;;;;;22.00;8.27;;;8.40;99.90;;;;;;7343903;32;20158;-57
2023/12/16 18:51:29;;;;;;;20.85;8.85;;;8.30;99.90;;;;;;7345874;32;20095;-55
2023/12/16 18:55:30;;;;;;;18.62;8.40;;;8.30;99.90;;;;;;7347555;32;20134;-58
2023/12/16 18:59:32;;;;;;;19.70;7.75;;;8.40;99.90;;;;;;7348793;32;20314;-57
2023/12/16 19:03:34;;;;;;;11.93;7.43;;;8.40;99.90;;;;;;7339518;32;20245;-57
2023/12/16 19:07:36;;;;;;;18.30;8.55;;;8.40;99.90;;;;;;7344231;32;20228;-57
2023/12/16 19:11:39;;;;;;;16.50;7.30;;;8.40;99.90;;;;;;7339917;32;20360;-60
2023/12/16 19:15:41;;;;;;;14.38;8.45;;;8.50;99.90;;;;;;7350945;32;20099;-61
2023/12/16 19:19:44;;;;;;;13.73;7.75;;;8.60;99.90;;;;;;7337709;32;21263;-58
2023/12/16 19:23:46;;;;;;;15.60;7.82;;;8.70;99.90;;;;;;7321861;32;20281;-57
2023/12/16 19:27:48;;;;;;;14.63;7.93;;;8.70;99.90;;;;;;7339705;32;20551;-58
2023/12/16 19:31:50;;;;;;;14.10;7.90;;;8.60;99.90;;;;;;7341927;32;20617;-58
2023/12/16 19:35:52;;;;;;;19.85;8.43;;;8.60;99.90;;;;;;7338465;32;20205;-59
2023/12/16 19:39:53;;;;;;;12.15;7.80;;;8.60;99.90;;;;;;7350804;32;20173;-57
2023/12/16 19:43:55;;;;;;;14.98;8.07;;;8.50;99.90;;;;;;7348822;32;20220;-57
2023/12/16 19:47:57;;;;;;;9.25;6.60;;;8.50;99.90;;;;;;7343515;32;20119;-57
2023/12/16 19:51:59;;;;;;;19.67;7.65;;;8.50;99.90;;;;;;7346689;32;20469;-55
2023/12/16 19:56:02;;;;;;;13.32;6.55;;;8.50;99.90;;;;;;7351739;32;20513;-57
2023/12/16 20:00:04;;;;;;;10.82;7.45;;;8.50;99.90;;;;;;7348442;32;20113;-57
2023/12/16 20:04:06;;;;;;;13.18;7.05;;;8.50;99.90;;;;;;7345828;32;20183;-58
2023/12/16 20:08:08;;;;;;;13.75;7.22;;;8.50;99.90;;;;;;7344092;32;20210;-57
2023/12/16 20:12:10;;;;;;;14.13;6.55;;;8.50;99.90;;;;;;7350240;32;20201;-58
2023/12/16 20:16:12;;;;;;;11.68;6.75;;;8.50;99.90;;;;;;7345248;32;20100;-58
2023/12/16 20:20:14;;;;;;;11.18;6.68;;;8.50;99.90;;;;;;7353221;32;20472;-57
2023/12/16 20:24:16;;;;;;;11.75;6.85;;;8.50;99.90;;;;;;7347077;32;20849;-58
2023/12/16 20:28:18;;;;;;;12.52;6.62;;;8.50;99.90;;;;;;7348836;32;20510;-57
2023/12/16 20:32:19;;;;;;;12.95;6.45;;;8.50;99.90;;;;;;7351014;32;20116;-57
2023/12/16 20:36:27;;;;;;;14.25;7.00;;;8.50;99.90;;;;;;7348873;32;20553;-57
2023/12/16 20:40:35;;;;;;;9.77;6.30;;;8.50;99.90;;;;;;7345163;32;20149;-56
2023/12/16 20:44:37;;;;;;;11.55;6.40;;;8.50;99.90;;;;;;7347990;32;20300;-57
2023/12/16 20:48:39;;;;;;;12.07;6.35;;;8.50;99.90;;;;;;7351309;32;20182;-57
2023/12/16 20:52:44;;;;;;;9.95;6.57;;;8.40;99.90;;;;;;7344920;32;20233;-57
2023/12/16 20:56:46;;;;;;;11.70;7.28;;;8.50;99.90;;;;;;7347912;32;20210;-56
2023/12/16 21:00:48;;;;;;;8.27;6.20;;;8.40;99.90;;;;;;7356006;32;20241;-58
2023/12/16 21:04:50;;;;;;;14.30;6.90;;;8.40;99.90;;;;;;7343093;32;20096;-57